Staplehurst, United Kingdom
Current Conditions -  °F | °C
As of 11:20 AM on Sunday 21 Dec 2014 (Local Time) from EGMD Reporting Station
Scattered Clouds Scattered Clouds  
Wind Chill: 10°   Ceiling: Unl
Heat Index: 10°   Visibility: 6mi
Dew Point:   Wind: 16mph
Humidity: 87%   Direction: 250°WSW
Pressure: 30.39"   Gusts: NA
Location:  51.16°N, 0.55°E
Report Text: EGMD 211120Z 25014KT 9999 SCT017 SCT024 10/08 Q1029
Loading
Personal Weather Stations






























Interactive Weather Map New forecast layout! Learn more

10-Day Weather Forecast

Advertisements
Track Severe Weather on mobile